Latest Coastal Weather Observations for Bairnsdale

IDV60701

Issued at 1:12 am EST Thursday 3 September 2026 (issued every 10 minutes, with the page automatically refreshed every 10 minutes)

About coastal observations | Map of coastal stations | Coastal observations for VIC | Marine services | Other Formats
Station Details ID: 085279 Name: BAIRNSDALE AIRPORT Lat: -37.88 Lon: 147.57 Height: 49.4 m
Data from the previous 72 hours. | See also: Recent months at Bairnsdale
Date/Time
EST
Wind Sea
Height
m
Swell Vis
km
Cloud Weather Temp
°C
Press
MSL
hPa
Rain since
9am
mm
Dir  Spd
kts
Gust
kts
Height
m
Period
s
Dir
03/01:00am NW 5 6 - - - - 5 Clear - 7.0 1010.0 0.0
03/12:30am NW 5 7 - - - - 10 Partly cloudy - 8.0 1010.1 0.0
03/12:00am NW 5 6 - - - - 10 Mostly cloudy - 8.5 1010.4 0.0
 
Date/Time
EST
Wind Sea
Height
m
Swell Vis
km
Cloud Weather Temp
°C
Press
MSL
hPa
Rain since
9am
mm
Dir  Spd
kts
Gust
kts
Height
m
Period
s
Dir
02/11:30pm NNW 4 6 - - - - 10 Cloudy - 9.1 1010.4 0.0
02/11:00pm WNW 4 5 - - - - 10 Cloudy - 9.0 1010.8 0.0
02/10:30pm SSW 4 4 - - - - 10 Cloudy - 7.6 1010.9 0.0
02/10:21pm S 2 4 - - - - 10 Partly cloudy - 7.0 1011.0 0.0
02/10:00pm CALM 0 0 - - - - 1 Mostly clear - 6.5 1011.2 0.0
02/09:51pm CALM 0 0 - - - - 5 - - 7.8 1011.0 0.0
02/09:30pm SSE 1 3 - - - - 9 - - 7.1 1011.4 0.0
02/09:00pm CALM 0 0 - - - - 10 - - 7.7 1011.6 0.0
02/08:30pm ESE 1 4 - - - - 10 - - 8.1 1011.5 0.0
02/08:00pm ESE 5 6 - - - - 10 - - 9.3 1011.4 0.0
02/07:30pm E 6 6 - - - - 10 - - 9.9 1011.3 0.0
02/07:00pm E 5 6 - - - - 10 - - 10.5 1011.5 0.0
02/06:30pm E 5 6 - - - - 10 - - 10.9 1011.5 0.0
02/06:00pm E 5 6 - - - - 10 - - 11.5 1011.5 0.0
02/05:30pm ESE 7 8 - - - - 10 Partly cloudy - 12.7 1011.4 0.0
02/05:00pm SE 7 9 - - - - 10 - - 13.3 1011.4 0.0
02/04:30pm SE 9 11 - - - - 10 - - 14.0 1011.3 0.0
02/04:00pm SE 9 11 - - - - 10 - - 15.2 1011.3 0.0
02/03:30pm ESE 9 12 - - - - 10 - - 15.6 1011.1 0.0
02/03:00pm SE 9 13 - - - - 10 - - 15.8 1011.3 0.0
02/02:30pm SE 10 13 - - - - 10 Partly cloudy - 16.4 1011.3 0.0
02/02:00pm SE 7 11 - - - - 10 Partly cloudy - 17.3 1011.5 0.0
02/01:30pm ESE 9 12 - - - - 10 Partly cloudy - 16.5 1011.7 0.0
02/01:00pm SSE 9 11 - - - - 10 Partly cloudy - 16.5 1012.0 0.0
02/12:30pm SSW 8 10 - - - - 10 Cloudy - 16.5 1012.4 0.0
02/12:00pm SW 8 11 - - - - 10 Cloudy - 16.6 1012.8 0.0
02/11:30am WSW 8 11 - - - - 10 Cloudy - 16.1 1013.3 0.0
02/11:00am WSW 9 12 - - - - 10 Cloudy - 15.5 1013.9 0.0
02/10:30am SW 10 13 - - - - 10 Cloudy - 15.3 1014.0 0.0
02/10:00am SW 11 15 - - - - 10 Cloudy - 15.4 1014.1 0.0
02/09:30am WSW 9 14 - - - - 10 Partly cloudy - 15.4 1014.2 0.0
02/09:00am WSW 9 13 - - - - 10 Cloudy - 15.1 1014.1 0.0
02/08:30am SW 5 9 - - - - 10 Cloudy - 14.1 1014.0 0.0
02/08:00am SE 5 6 - - - - 10 Partly cloudy - 13.6 1013.7 0.0
02/07:30am SW 5 6 - - - - 10 Cloudy - 13.7 1013.0 0.0
02/07:00am CALM 0 3 - - - - 10 Partly cloudy - 14.0 1012.7 0.0
02/06:30am E 3 5 - - - - 10 Cloudy - 14.3 1012.2 0.0
02/06:00am CALM 0 3 - - - - 10 Cloudy - 14.1 1011.8 0.0
02/05:30am SSW 7 9 - - - - 10 Cloudy - 13.6 1011.8 0.0
02/05:00am SSW 7 7 - - - - 10 Cloudy - 13.7 1011.5 0.0
02/04:30am SSW 6 7 - - - - 10 Cloudy - 14.2 1011.2 0.0
02/04:00am SW 7 9 - - - - 10 Cloudy - 15.0 1011.1 0.0
02/03:30am W 7 11 - - - - 10 Cloudy - 16.7 1010.7 0.0
02/03:00am WNW 7 9 - - - - 10 Cloudy - 16.6 1010.5 0.0
02/02:30am NW 5 7 - - - - 10 Cloudy - 17.0 1010.8 0.0
02/02:00am NNW 6 8 - - - - 10 Cloudy - 16.9 1011.0 0.0
02/01:30am N 4 6 - - - - 10 Partly cloudy - 17.1 1011.2 0.0
02/01:00am WNW 6 8 - - - - 10 Cloudy - 16.6 1011.5 0.0
02/12:30am WNW 4 6 - - - - 10 Cloudy - 16.2 1011.5 0.0
02/12:00am NW 4 6 - - - - 10 Partly cloudy - 17.4 1011.6 0.0
 
Date/Time
EST
Wind Sea
Height
m
Swell Vis
km
Cloud Weather Temp
°C
Press
MSL
hPa
Rain since
9am
mm
Dir  Spd
kts
Gust
kts
Height
m
Period
s
Dir
01/11:30pm NW 8 11 - - - - 10 Partly cloudy - 18.8 1011.4 0.0
01/11:00pm NNW 8 11 - - - - 10 Partly cloudy - 18.2 1011.6 0.0
01/10:30pm N 7 9 - - - - 10 Partly cloudy - 18.5 1011.8 0.0
01/10:00pm N 8 11 - - - - 10 Cloudy - 18.8 1012.1 0.0
01/09:30pm N 7 10 - - - - 10 Partly cloudy - 18.2 1012.4 0.0
01/09:00pm N 7 9 - - - - 10 Mostly cloudy - 17.7 1012.8 0.0
01/08:30pm N 7 10 - - - - 10 - - 18.1 1013.3 0.0
01/08:00pm NNW 6 10 - - - - 10 - - 18.2 1013.8 0.0
01/07:30pm NW 9 14 - - - - 10 - - 18.7 1014.0 0.0
01/07:00pm NW 14 20 - - - - 10 - - 19.6 1013.9 0.0
01/06:30pm NW 14 21 - - - - 10 - - 20.0 1013.5 0.0
01/06:00pm NW 10 14 - - - - 10 - - 19.7 1013.0 0.0
01/05:30pm NW 10 12 - - - - 10 - - 20.0 1012.9 0.0
01/05:00pm WNW 11 15 - - - - 10 - - 20.9 1012.6 0.0
01/04:30pm WNW 12 16 - - - - 10 - - 21.4 1012.7 0.0
01/04:00pm NW 13 19 - - - - 10 - - 22.1 1012.6 0.0
01/03:30pm NNW 15 20 - - - - 10 - - 22.6 1013.1 0.0
01/03:00pm NNW 18 27 - - - - 10 - - 23.3 1013.3 0.0
01/02:30pm NNW 16 26 - - - - 10 - - 23.5 1013.4 0.0
01/02:16pm NNW 18 28 - - - - 10 - - 23.7 1013.5 0.0
01/02:00pm NNW 19 26 - - - - 10 - - 24.1 1013.4 0.0
01/01:30pm NNW 16 24 - - - - 10 - - 24.0 1014.0 0.0
01/01:00pm NNW 17 24 - - - - 10 - - 23.7 1014.9 0.0
01/12:30pm NNW 20 25 - - - - 10 - - 23.9 1015.5 0.0
01/12:15pm NNW 19 29 - - - - 10 - - 23.8 1015.7 0.0
01/12:00pm NNW 18 27 - - - - 10 - - 23.3 1015.9 0.0
01/11:31am NNW 17 24 - - - - 10 - - 23.5 1016.6 0.0
01/11:30am NNW 17 24 - - - - 10 - - 23.3 1016.7 0.0
01/11:04am NNW 15 25 - - - - 10 - - 22.3 1017.3 0.0
01/11:00am NNW 14 22 - - - - 10 - - 22.3 1017.6 0.0
01/10:30am N 10 17 - - - - 10 - - 21.2 1018.4 0.0
01/10:00am N 11 18 - - - - 10 - - 20.3 1019.1 0.0
01/09:30am NNW 12 17 - - - - 10 - - 19.3 1019.8 0.0
01/09:00am N 9 16 - - - - 10 - - 17.5 1020.3 0.2
01/08:56am N 7 12 - - - - 10 - - 16.6 1020.4 0.2
01/08:30am NNE 4 10 - - - - 10 - - 11.5 1021.0 0.2
01/08:00am NE 3 5 - - - - 10 - - 8.7 1021.1 0.2
01/07:30am ENE 2 4 - - - - 10 - - 7.0 1021.3 0.2
01/07:05am E 3 5 - - - - 10 - - 5.1 1021.1 0.2
01/07:00am ENE 4 6 - - - - 10 - - 4.5 1021.1 0.2
01/06:30am SSE 2 5 - - - - 2 - - 2.9 1021.1 0.2
01/06:23am CALM 0 0 - - - - 4 - - 2.7 1021.2 0.2
01/06:06am CALM 0 0 - - - - 10 - - 3.1 1021.4 0.2
01/06:00am CALM 0 0 - - - - 10 - - 2.6 1021.5 0.2
01/05:39am CALM 0 0 - - - - 5 - - 2.3 1021.6 0.2
01/05:30am CALM 0 3 - - - - 10 - - 2.9 1021.6 0.2
01/05:17am SSE 3 5 - - - - 10 - - 2.8 1021.7 0.2
01/05:00am SSW 3 4 - - - - 0.7 - - 3.6 1021.6 0.2
01/04:50am SW 3 5 - - - - 4 - - 2.9 1021.7 0.2
01/04:30am WSW 3 4 - - - - 10 - - 3.2 1021.9 0.2
01/04:15am WSW 1 4 - - - - 10 - - 4.2 1022.0 0.2
01/04:00am W 4 5 - - - - 2 - - 4.2 1022.1 0.2
01/03:30am NNW 3 4 - - - - 2 - - 3.8 1022.3 0.2
01/03:00am NNW 4 4 - - - - 4 - - 4.2 1022.6 0.2
01/02:58am NNW 3 4 - - - - 5 - - 4.1 1022.6 0.2
01/02:50am NNW 3 4 - - - - 10 - - 3.8 1022.9 0.2
01/02:31am NW 3 5 - - - - 2 Mostly clear - 3.9 1023.4 0.2
01/02:30am NW 4 5 - - - - 2 Mostly clear - 3.8 1023.4 0.2
01/02:00am NW 4 6 - - - - 0.3 Cloudy - 2.9 1024.0 0.2
01/01:30am N 3 7 - - - - 0.2 Partly cloudy - 4.5 1024.6 0.2
01/01:18am NNW 4 6 - - - - 0.6 Partly cloudy - 4.1 1024.7 0.2
01/01:00am NW 3 4 - - - - 0.6 Partly cloudy - 4.2 1025.0 0.2
01/12:30am NNW 4 5 - - - - 0.2 Cloudy - 4.1 1025.6 0.2
01/12:00am NNE 3 4 - - - - 0.1 Mostly cloudy - 4.1 1025.9 0.2
 
Date/Time
EST
Wind Sea
Height
m
Swell Vis
km
Cloud Weather Temp
°C
Press
MSL
hPa
Rain since
9am
mm
Dir  Spd
kts
Gust
kts
Height
m
Period
s
Dir
31/11:50pm NE 2 4 - - - - 0.1 Partly cloudy - 4.1 1026.0 0.2
31/11:30pm CALM 0 0 - - - - 0.1 - - 4.9 1026.3 0.2
31/11:00pm CALM 0 3 - - - - 0.3 Mostly clear - 6.6 1026.6 0.2
31/10:30pm NE 3 4 - - - - 0.5 - - 7.6 1026.9 0.2
31/10:18pm NE 3 4 - - - - 5 - - 7.7 1027.2 0.2
31/10:00pm ENE 4 4 - - - - 10 - - 7.6 1027.3 0.2
31/09:30pm NE 4 5 - - - - 10 - - 8.1 1027.7 0.2
31/09:00pm NE 4 5 - - - - 10 - - 8.9 1027.9 0.2
31/08:34pm NE 4 5 - - - - 7 - - 9.0 1028.0 0.2
31/08:30pm NE 4 5 - - - - 10 - - 8.9 1028.1 0.2
31/08:00pm ENE 3 4 - - - - 0.6 - - 8.3 1028.3 0.2
31/07:34pm E 3 5 - - - - 4 - - 8.6 1028.4 0.2
31/07:30pm E 3 4 - - - - 10 - - 9.0 1028.4 0.2
31/07:00pm ENE 4 5 - - - - 10 - - 10.0 1028.4 0.2
31/06:30pm E 4 5 - - - - 10 - - 10.3 1028.5 0.2
31/06:00pm SE 5 6 - - - - 10 - - 11.2 1028.2 0.2
31/05:30pm SE 6 7 - - - - 10 - - 12.5 1028.0 0.2
31/05:00pm SE 8 9 - - - - 10 - - 13.9 1027.7 0.2
31/04:30pm SE 7 8 - - - - 10 - - 15.0 1027.8 0.2
31/04:00pm ESE 6 8 - - - - 10 - - 16.1 1027.9 0.2
31/03:30pm ESE 6 8 - - - - 10 - - 16.6 1028.1 0.2
31/03:00pm E 6 9 - - - - 10 - - 16.5 1028.4 0.2
31/02:30pm E 7 9 - - - - 10 - - 16.7 1028.8 0.2
31/02:00pm ESE 3 7 - - - - 10 - - 17.6 1029.2 0.2
31/01:30pm SE 5 8 - - - - 10 - - 17.0 1029.5 0.2
31/01:00pm SSE 4 8 - - - - 10 - - 16.6 1030.0 0.2
31/12:30pm S 5 9 - - - - 10 - - 16.1 1030.5 0.0
31/12:00pm SSW 6 8 - - - - 10 - - 15.9 1030.9 0.0
31/11:30am SSE 5 8 - - - - 10 - - 15.4 1031.2 0.0
31/11:00am SSW 4 6 - - - - 10 - - 14.5 1031.6 0.0
31/10:30am WSW 4 7 - - - - 10 - - 13.8 1031.8 0.0
31/10:00am WNW 4 6 - - - - 10 - - 12.9 1032.0 0.0
31/09:30am W 5 7 - - - - 10 - - 11.6 1032.1 0.0
31/09:00am NW 5 6 - - - - 10 - - 10.0 1032.1 0.0
31/08:30am NNW 5 7 - - - - 10 - - 8.1 1032.4 0.0
31/08:00am NW 6 8 - - - - 10 - - 6.4 1032.4 0.0
31/07:30am NW 5 7 - - - - 10 - - 5.6 1032.2 0.0
31/07:09am NW 7 9 - - - - 10 - - 4.4 1031.9 0.0
31/07:00am NW 7 8 - - - - 6 - - 3.6 1031.9 0.0
31/06:30am NW 6 7 - - - - 0.7 - - 2.8 1031.7 0.0
31/06:00am NW 6 7 - - - - 4 - - 3.5 1031.4 0.0
31/05:30am NW 5 7 - - - - 1 - - 3.0 1031.4 0.0
31/05:00am NW 5 7 - - - - 0.8 - - 2.3 1031.2 0.0
31/04:30am NW 6 7 - - - - 0.5 Mostly clear - 2.6 1031.2 0.0
31/04:00am NNW 6 7 - - - - 0.4 Mostly clear - 3.6 1031.3 0.0
31/03:30am NW 4 6 - - - - 0.5 - - 3.4 1031.3 0.0
31/03:00am NW 5 7 - - - - 1 - - 3.8 1031.5 0.0
31/02:30am NW 4 6 - - - - 0.5 - - 3.4 1031.5 0.0
31/02:00am NW 5 6 - - - - 0.6 - - 4.0 1031.7 0.0
31/01:43am NW 5 6 - - - - 2 Mostly clear - 4.7 1031.8 0.0
31/01:30am NNW 6 6 - - - - 0.4 Partly cloudy - 4.7 1031.9 0.0

Other formats

Comma delimited format used in spreadsheet applications
http://www.bom.gov.au/fwo/IDV60701/IDV60701.94912.axf

JavaScript Object Notation format (JSON) in row-major order
http://www.bom.gov.au/fwo/IDV60701/IDV60701.94912.json

Data quality

Most of these data are generated automatically and are frequently updated. Quality checks on data are not normally performed. It is possible for incorrect values to appear. Refer to information at About Latest Weather Observations and please check the disclaimer before using these data.